18 | 09 | 2021

Daten Vortag

Klimadaten von 10m Höhe gemessen, Station 

Datum / Zeit Intervall min Luftfeuchte % Temperatur °C Absoluter Luftdruck hPa Wind m/s Windböhen m/s Wind Richtung Relative Luftdruck hPa Taupunkt °C Windchill °C Niederschlag mm
17-09-2021 00:19 5 93 16.6 1009.5 2.5 5.0 NW 1011.0 15.5 16.6 0.0
17-09-2021 00:24 5 93 16.6 1009.5 3.6 6.1 W 1011.0 15.5 16.6 0.0
17-09-2021 00:29 5 93 16.6 1009.6 3.6 6.1 W 1011.1 15.5 16.6 0.0
17-09-2021 00:34 5 93 16.6 1009.5 5.0 6.1 W 1011.0 15.5 16.6 0.0
17-09-2021 00:39 5 93 16.5 1009.6 6.1 8.6 W 1011.1 15.4 16.5 0.0
17-09-2021 00:44 5 93 16.5 1009.5 5.0 6.1 W 1011.0 15.4 16.5 0.0
17-09-2021 00:49 5 94 16.5 1009.4 5.0 8.6 NW 1010.9 15.6 16.5 0.0
17-09-2021 00:54 5 95 16.4 1009.7 5.0 8.6 NW 1011.2 15.6 16.4 0.3
17-09-2021 00:59 5 95 16.2 1009.7 2.5 5.0 E 1011.2 15.4 16.2 0.3
17-09-2021 01:04 5 95 16.1 1009.8 2.5 5.0 SW 1011.3 15.3 16.1 0.3
17-09-2021 01:09 5 95 15.8 1010.0 3.6 5.0 SW 1011.5 15.0 15.8 0.6
17-09-2021 01:14 5 95 15.7 1009.8 3.6 5.0 W 1011.3 14.9 15.7 0.6
17-09-2021 01:19 5 96 15.6 1009.8 5.0 7.2 W 1011.3 15.0 15.6 0.6
17-09-2021 01:24 5 96 15.5 1009.8 2.5 5.0 W 1011.3 14.9 15.5 0.6
17-09-2021 01:29 5 97 15.4 1009.8 7.2 11.2 W 1011.3 14.9 14.5 0.6
17-09-2021 01:34 5 97 15.3 1009.9 5.0 6.1 NW 1011.4 14.8 15.3 0.6
17-09-2021 01:39 5 98 15.2 1009.8 2.5 5.0 W 1011.3 14.9 15.2 0.9
17-09-2021 01:44 5 98 15.1 1009.6 5.0 7.2 W 1011.1 14.8 15.1 0.9
17-09-2021 01:49 5 98 15.1 1009.7 3.6 5.0 W 1011.2 14.8 15.1 0.9
17-09-2021 01:54 5 99 15.0 1009.6 3.6 6.1 NW 1011.1 14.9 15.0 0.6
17-09-2021 01:59 5 99 15.0 1009.7 6.1 8.6 W 1011.2 14.9 15.0 0.9
17-09-2021 02:04 5 99 15.0 1009.7 3.6 6.1 W 1011.2 14.9 15.0 0.9
17-09-2021 02:09 5 99 15.0 1009.9 5.0 8.6 W 1011.4 14.9 15.0 0.6
17-09-2021 02:14 5 99 15.0 1009.7 5.0 7.2 SW 1011.2 14.9 15.0 0.6
17-09-2021 02:19 5 99 15.0 1009.8 5.0 6.1 W 1011.3 14.9 15.0 0.9
17-09-2021 02:24 5 99 14.9 1009.8 7.2 11.2 SW 1011.3 14.8 14.0 0.9
17-09-2021 02:29 5 99 14.9 1009.5 5.0 8.6 N 1011.0 14.8 14.9 0.9
17-09-2021 02:34 5 99 14.9 1009.8 5.0 8.6 W 1011.3 14.8 14.9 0.9
17-09-2021 02:39 5 99 14.9 1009.8 3.6 6.1 W 1011.3 14.8 14.9 0.6
17-09-2021 02:44 5 99 14.9 1010.0 9.7 14.8 NW 1011.5 14.8 12.9 0.6
17-09-2021 02:49 5 98 14.9 1009.8 6.1 9.7 W 1011.3 14.6 14.9 0.9
17-09-2021 02:54 5 98 14.9 1009.8 7.2 12.2 W 1011.3 14.6 14.0 0.9
17-09-2021 02:59 5 97 14.9 1009.8 6.1 8.6 W 1011.3 14.4 14.9 0.6
17-09-2021 03:04 5 97 14.8 1009.9 5.0 8.6 W 1011.4 14.3 14.8 0.6
17-09-2021 03:09 5 97 14.8 1009.8 5.0 8.6 W 1011.3 14.3 14.8 0.6
17-09-2021 03:14 5 97 14.9 1009.7 3.6 5.0 W 1011.2 14.4 14.9 0.6
17-09-2021 03:19 5 97 14.9 1009.7 6.1 9.7 W 1011.2 14.4 14.9 0.3
17-09-2021 03:24 5 98 14.9 1009.8 3.6 5.0 SW 1011.3 14.6 14.9 0.3
17-09-2021 03:29 5 98 14.9 1009.4 3.6 6.1 N 1010.9 14.6 14.9 0.3
17-09-2021 03:34 5 98 14.9 1009.7 5.0 7.2 NNW 1011.2 14.6 14.9 0.3
17-09-2021 03:39 5 97 14.8 1009.7 7.2 11.2 W 1011.2 14.3 13.9 0.3
17-09-2021 03:44 5 97 14.8 1009.7 6.1 7.2 W 1011.2 14.3 14.8 0.3
17-09-2021 03:49 5 97 14.8 1009.8 5.0 6.1 NW 1011.3 14.3 14.8 0.0
17-09-2021 03:54 5 97 14.8 1009.6 7.2 11.2 W 1011.1 14.3 13.9 0.0
17-09-2021 03:59 5 97 14.7 1009.7 3.6 5.0 S 1011.2 14.2 14.7 0.0
17-09-2021 04:04 5 97 14.7 1009.5 5.0 8.6 SW 1011.0 14.2 14.7 0.0
17-09-2021 04:09 5 97 14.7 1009.7 5.0 8.6 SW 1011.2 14.2 14.7 0.0
17-09-2021 04:14 5 97 14.6 1009.7 5.0 6.1 W 1011.2 14.1 14.6 0.0
17-09-2021 04:19 5 98 14.5 1009.5 6.1 8.6 W 1011.0 14.2 14.5 0.3
17-09-2021 04:24 5 98 14.5 1009.7 8.6 11.2 W 1011.2 14.2 12.9 0.3
17-09-2021 04:29 5 99 14.5 1009.6 6.1 9.7 W 1011.1 14.4 14.5 0.3
17-09-2021 04:34 5 99 14.4 1009.6 9.7 13.3 W 1011.1 14.3 12.3 0.3
17-09-2021 04:39 5 99 14.4 1009.6 9.7 13.3 W 1011.1 14.3 12.3 0.3
17-09-2021 04:44 5 99 14.3 1009.5 8.6 14.8 W 1011.0 14.2 12.7 0.3
17-09-2021 04:49 5 99 14.3 1009.7 13.3 15.8 W 1011.2 14.2 10.9 0.3
17-09-2021 04:54 5 99 14.2 1009.4 7.2 12.2 W 1010.9 14.1 13.3 0.3
17-09-2021 04:59 5 99 14.2 1009.5 11.2 15.8 W 1011.0 14.1 11.5 0.6
17-09-2021 05:04 5 99 14.2 1009.6 9.7 12.2 W 1011.1 14.1 12.1 0.6
17-09-2021 05:09 5 99 14.2 1009.5 6.1 7.2 W 1011.0 14.1 14.2 0.6
17-09-2021 05:14 5 99 14.1 1009.7 6.1 9.7 W 1011.2 14.0 14.1 0.6
17-09-2021 05:19 5 99 14.0 1009.3 9.7 13.3 W 1010.8 13.9 11.9 0.3
17-09-2021 05:24 5 99 14.0 1009.4 5.0 8.6 W 1010.9 13.9 14.0 0.3
17-09-2021 05:29 5 99 14.0 1009.6 6.1 9.7 SW 1011.1 13.9 14.0 0.3
17-09-2021 05:34 5 99 13.9 1009.4 6.1 8.6 W 1010.9 13.8 13.9 0.3
17-09-2021 05:39 5 99 13.9 1009.4 7.2 9.7 SW 1010.9 13.8 13.0 0.3
17-09-2021 05:44 5 99 13.9 1009.5 3.6 6.1 W 1011.0 13.8 13.9 0.3
17-09-2021 05:49 5 99 13.9 1009.6 8.6 11.2 SW 1011.1 13.8 12.2 0.3
17-09-2021 05:54 5 99 14.0 1009.4 7.2 12.2 W 1010.9 13.9 13.1 0.6
17-09-2021 05:59 5 99 14.0 1009.7 8.6 12.2 SWW 1011.2 13.9 12.3 0.3
17-09-2021 06:04 5 99 14.0 1009.6 3.6 6.1 W 1011.1 13.9 14.0 0.3
17-09-2021 06:09 5 99 14.0 1009.4 3.6 6.1 W 1010.9 13.9 14.0 0.3
17-09-2021 06:14 5 99 13.9 1009.5 3.6 5.0 NW 1011.0 13.8 13.9 0.3
17-09-2021 06:19 5 99 13.9 1009.7 6.1 8.6 SW 1011.2 13.8 13.9 0.3
17-09-2021 06:24 5 99 13.9 1009.8 8.6 12.2 W 1011.3 13.8 12.2 0.3
17-09-2021 06:29 5 99 13.9 1009.8 5.0 7.2 SW 1011.3 13.8 13.9 0.3
17-09-2021 06:34 5 99 13.9 1009.7 3.6 5.0 SW 1011.2 13.8 13.9 0.3
17-09-2021 06:39 5 99 13.9 1009.6 3.6 6.1 SW 1011.1 13.8 13.9 0.3
17-09-2021 06:44 5 99 13.8 1009.8 7.2 11.2 N 1011.3 13.7 12.9 0.6
17-09-2021 06:49 5 99 13.8 1009.8 7.2 9.7 SW 1011.3 13.7 12.9 0.6
17-09-2021 06:54 5 99 13.8 1009.9 7.2 8.6 W 1011.4 13.7 12.9 0.3
17-09-2021 06:59 5 99 13.8 1009.9 2.5 5.0 W 1011.4 13.7 13.8 0.3
17-09-2021 07:04 5 99 13.8 1009.7 5.0 7.2 NWW 1011.2 13.7 13.8 0.3
17-09-2021 07:09 5 99 13.8 1010.0 8.6 12.2 SW 1011.5 13.7 12.1 0.3
17-09-2021 07:14 5 99 13.7 1010.1 3.6 5.0 W 1011.6 13.6 13.7 0.6
17-09-2021 07:19 5 99 13.7 1009.9 5.0 7.2 SW 1011.4 13.6 13.7 0.9
17-09-2021 07:24 5 99 13.7 1009.9 6.1 9.7 W 1011.4 13.6 13.7 1.2
17-09-2021 07:29 5 99 13.7 1010.0 6.1 7.2 SWW 1011.5 13.6 13.7 1.5
17-09-2021 07:34 5 99 13.7 1010.2 5.0 6.1 W 1011.7 13.6 13.7 1.5
17-09-2021 07:39 5 99 13.7 1010.0 2.5 5.0 SWW 1011.5 13.6 13.7 1.5
17-09-2021 07:44 5 99 13.8 1010.1 5.0 7.2 W 1011.6 13.7 13.8 1.2
17-09-2021 07:49 5 99 13.9 1010.2 3.6 6.1 W 1011.7 13.8 13.9 1.2
17-09-2021 07:54 5 99 13.9 1010.1 6.1 7.2 W 1011.6 13.8 13.9 1.2
17-09-2021 07:59 5 99 13.9 1010.1 5.0 7.2 W 1011.6 13.8 13.9 1.2
17-09-2021 08:04 5 99 14.0 1010.4 5.0 6.1 NE 1011.9 13.9 14.0 1.2
17-09-2021 08:09 5 99 14.0 1010.2 3.6 6.1 W 1011.7 13.9 14.0 1.2
17-09-2021 08:14 5 99 14.1 1010.3 3.6 7.2 N 1011.8 14.0 14.1 0.9
17-09-2021 08:19 5 99 14.1 1010.2 3.6 6.1 W 1011.7 14.0 14.1 0.6
17-09-2021 08:24 5 99 14.1 1010.1 3.6 5.0 SW 1011.6 14.0 14.1 0.3
17-09-2021 08:29 5 99 14.1 1010.3 3.6 6.1 NW 1011.8 14.0 14.1 0.3
17-09-2021 08:34 5 99 14.1 1010.3 5.0 6.1 N 1011.8 14.0 14.1 0.3
17-09-2021 08:39 5 99 14.2 1010.3 1.1 3.6 NW 1011.8 14.1 14.2 0.3
17-09-2021 08:44 5 99 14.3 1010.3 6.1 7.2 SSE 1011.8 14.2 14.3 0.3
17-09-2021 08:49 5 99 14.4 1010.3 2.5 5.0 SWW 1011.8 14.3 14.4 0.3
17-09-2021 08:54 5 99 14.4 1010.4 2.5 6.1 NWW 1011.9 14.3 14.4 0.3
17-09-2021 08:59 5 99 14.3 1010.2 2.5 5.0 SW 1011.7 14.2 14.3 0.3
17-09-2021 09:04 5 99 14.2 1010.4 3.6 5.0 SW 1011.9 14.1 14.2 0.3
17-09-2021 09:09 5 99 14.1 1010.3 3.6 5.0 W 1011.8 14.0 14.1 0.3
17-09-2021 09:14 5 98 13.9 1010.2 5.0 7.2 N 1011.7 13.6 13.9 0.3
17-09-2021 09:19 5 97 13.9 1010.2 6.1 8.6 W 1011.7 13.4 13.9 0.3
17-09-2021 09:24 5 97 13.8 1010.5 6.1 8.6 SW 1012.0 13.3 13.8 0.3
17-09-2021 09:29 5 97 13.9 1010.4 7.2 9.7 W 1011.9 13.4 13.0 0.0
17-09-2021 09:34 5 97 14.0 1010.3 6.1 11.2 NW 1011.8 13.5 14.0 0.0
17-09-2021 09:39 5 97 14.0 1010.5 6.1 9.7 N 1012.0 13.5 14.0 0.0
17-09-2021 09:44 5 96 14.0 1010.4 7.2 9.7 SW 1011.9 13.4 13.1 0.0
17-09-2021 09:49 5 95 14.0 1010.5 5.0 7.2 SWW 1012.0 13.2 14.0 0.0
17-09-2021 09:54 5 94 14.0 1010.5 5.0 8.6 NW 1012.0 13.1 14.0 0.0
17-09-2021 09:59 5 94 14.0 1010.4 5.0 7.2 SW 1011.9 13.1 14.0 0.0
17-09-2021 10:04 5 94 14.0 1010.4 6.1 8.6 NW 1011.9 13.1 14.0 0.0
17-09-2021 10:09 5 93 14.0 1010.5 6.1 13.3 W 1012.0 12.9 14.0 0.0
17-09-2021 10:14 5 93 14.2 1010.8 6.1 8.6 W 1012.3 13.1 14.2 0.0
17-09-2021 10:19 5 93 14.2 1010.8 5.0 8.6 SW 1012.3 13.1 14.2 0.0
17-09-2021 10:24 5 92 14.0 1010.5 6.1 9.7 SSW 1012.0 12.7 14.0 0.0
17-09-2021 10:29 5 92 13.8 1010.8 7.2 8.6 NW 1012.3 12.5 12.9 0.0
17-09-2021 10:34 5 92 13.8 1010.9 5.0 7.2 SW 1012.4 12.5 13.8 0.0
17-09-2021 10:39 5 93 13.8 1010.9 5.0 7.2 W 1012.4 12.7 13.8 0.0
17-09-2021 10:44 5 93 14.0 1010.8 7.2 8.6 NW 1012.3 12.9 13.1 0.0
17-09-2021 10:49 5 93 14.1 1010.8 6.1 8.6 NW 1012.3 13.0 14.1 0.0
17-09-2021 10:54 5 93 14.3 1011.1 5.0 7.2 SWW 1012.6 13.2 14.3 0.0
17-09-2021 10:59 5 92 14.5 1011.2 8.6 13.3 NW 1012.7 13.2 12.9 0.0
17-09-2021 11:04 5 91 14.6 1010.8 8.6 11.2 W 1012.3 13.2 13.0 0.0
17-09-2021 11:09 5 88 14.6 1010.9 9.7 13.3 SW 1012.4 12.7 12.5 0.0
17-09-2021 11:14 5 87 14.9 1010.8 3.6 7.2 NE 1012.3 12.8 14.9 0.0
17-09-2021 11:19 5 86 15.1 1010.9 6.1 8.6 W 1012.4 12.8 15.1 0.0
17-09-2021 11:24 5 84 15.2 1010.9 6.1 8.6 W 1012.4 12.5 15.2 0.0
17-09-2021 11:29 5 84 15.2 1011.0 7.2 11.2 W 1012.5 12.5 14.3 0.0
17-09-2021 11:34 5 85 15.1 1011.0 7.2 9.7 S 1012.5 12.6 14.2 0.0
17-09-2021 11:39 5 87 15.5 1011.0 3.6 6.1 S 1012.5 13.4 15.5 0.0
17-09-2021 11:44 5 87 15.7 1011.1 7.2 12.2 W 1012.6 13.6 14.9 0.0
17-09-2021 11:49 5 85 15.3 1011.2 7.2 9.7 W 1012.7 12.8 14.4 0.0
17-09-2021 11:54 5 85 15.0 1011.2 7.2 12.2 SW 1012.7 12.5 14.1 0.0
17-09-2021 11:59 5 86 14.9 1011.2 7.2 9.7 NW 1012.7 12.6 14.0 0.0
17-09-2021 12:04 5 87 14.7 1011.3 6.1 8.6 W 1012.8 12.6 14.7 0.0
17-09-2021 12:09 5 88 14.5 1011.1 5.0 7.2 S 1012.6 12.6 14.5 0.0
17-09-2021 12:14 5 88 14.6 1011.3 5.0 7.2 W 1012.8 12.7 14.6 0.0
17-09-2021 12:19 5 89 14.7 1011.2 6.1 7.2 NW 1012.7 12.9 14.7 0.0
17-09-2021 12:24 5 89 14.6 1011.2 9.7 14.8 NW 1012.7 12.8 12.5 0.0
17-09-2021 12:29 5 89 14.4 1011.3 9.7 11.2 W 1012.8 12.6 12.3 0.0
17-09-2021 12:34 5 89 14.2 1011.2 7.2 11.2 NW 1012.7 12.4 13.3 0.0
17-09-2021 12:36 5 90 14.2 1011.1 6.1 8.6 W 1012.6 12.6 14.2 0.0
17-09-2021 12:41 5 90 14.2 1011.2 7.2 9.7 NW 1012.7 12.6 13.3 0.0
17-09-2021 12:46 5 91 14.3 1011.3 8.6 11.2 W 1012.8 12.9 12.7 0.0
17-09-2021 12:51 5 91 14.6 1011.2 5.0 7.2 W 1012.7 13.2 14.6 0.0
17-09-2021 12:56 5 90 14.8 1011.3 9.7 14.8 SWW 1012.8 13.2 12.8 0.0
17-09-2021 13:01 5 88 15.0 1011.3 6.1 8.6 W 1012.8 13.0 15.0 0.0
17-09-2021 13:06 5 85 15.2 1011.2 8.6 9.7 SW 1012.7 12.7 13.7 0.0
17-09-2021 13:11 5 85 15.5 1011.3 5.0 8.6 SW 1012.8 13.0 15.5 0.0
17-09-2021 13:16 5 83 15.5 1011.1 9.7 13.3 W 1012.6 12.6 13.5 0.0
17-09-2021 13:21 5 83 15.4 1011.4 6.1 11.2 NW 1012.9 12.5 15.4 0.0
17-09-2021 13:26 5 82 15.3 1011.4 13.3 14.8 NW 1012.9 12.3 12.0 0.0
17-09-2021 13:31 5 82 15.1 1011.3 8.6 12.2 NW 1012.8 12.1 13.5 0.0
17-09-2021 13:36 5 83 15.3 1011.4 11.2 15.8 W 1012.9 12.4 12.8 0.0
17-09-2021 13:41 5 82 15.2 1011.4 9.7 14.8 NW 1012.9 12.2 13.2 0.0
17-09-2021 13:46 5 83 14.8 1011.5 7.2 9.7 SW 1013.0 12.0 13.9 0.0
17-09-2021 13:51 5 83 14.6 1011.5 6.1 7.2 W 1013.0 11.8 14.6 0.0
17-09-2021 13:56 5 84 14.5 1011.3 7.2 12.2 W 1012.8 11.8 13.6 0.0
17-09-2021 14:01 5 84 14.3 1011.3 7.2 9.7 W 1012.8 11.7 13.4 0.0
17-09-2021 14:06 5 85 14.1 1011.4 8.6 13.3 NW 1012.9 11.6 12.5 0.0
17-09-2021 14:11 5 87 14.1 1011.5 6.1 8.6 SW 1013.0 12.0 14.1 0.0
17-09-2021 14:16 5 88 14.0 1011.4 7.2 9.7 SWW 1012.9 12.1 13.1 0.0
17-09-2021 14:21 5 90 13.9 1011.4 7.2 9.7 W 1012.9 12.3 13.0 0.0
17-09-2021 14:26 5 90 13.8 1011.5 3.6 6.1 W 1013.0 12.2 13.8 0.0
17-09-2021 14:31 5 91 13.7 1011.6 5.0 6.1 W 1013.1 12.3 13.7 0.0
17-09-2021 14:36 5 92 13.7 1011.4 3.6 6.1 W 1012.9 12.4 13.7 0.0
17-09-2021 14:41 5 92 13.7 1011.8 3.6 7.2 SW 1013.3 12.4 13.7 0.0
17-09-2021 14:46 5 93 13.6 1011.6 7.2 11.2 SWW 1013.1 12.5 12.7 0.0
17-09-2021 14:51 5 93 13.5 1011.8 9.7 13.3 W 1013.3 12.4 11.3 0.0
17-09-2021 14:56 5 94 13.5 1011.5 8.6 9.7 NWW 1013.0 12.6 11.8 0.0
17-09-2021 15:01 5 94 13.5 1011.6 3.6 5.0 W 1013.1 12.6 13.5 0.0
17-09-2021 15:06 5 95 13.6 1011.8 9.7 12.2 N 1013.3 12.8 11.4 0.0
17-09-2021 15:11 5 95 13.6 1011.9 7.2 9.7 W 1013.4 12.8 12.7 0.0
17-09-2021 15:16 5 95 13.7 1011.7 8.6 11.2 W 1013.2 12.9 12.0 0.0
17-09-2021 15:21 5 95 13.7 1011.9 6.1 8.6 W 1013.4 12.9 13.7 0.3
17-09-2021 15:26 5 95 13.7 1011.6 9.7 12.2 W 1013.1 12.9 11.5 0.3
17-09-2021 15:31 5 96 13.7 1011.5 7.2 9.7 SSW 1013.0 13.1 12.8 0.3
17-09-2021 15:36 5 96 13.7 1011.7 7.2 8.6 W 1013.2 13.1 12.8 0.3
17-09-2021 15:41 5 96 13.8 1011.7 3.6 6.1 SW 1013.2 13.2 13.8 0.3
17-09-2021 15:46 5 95 13.8 1011.9 7.2 9.7 W 1013.4 13.0 12.9 0.3
17-09-2021 15:51 5 95 13.8 1011.7 6.1 7.2 W 1013.2 13.0 13.8 0.3
17-09-2021 15:56 5 95 13.8 1011.6 6.1 7.2 W 1013.1 13.0 13.8 0.3
17-09-2021 16:01 5 94 13.8 1012.0 5.0 8.6 SW 1013.5 12.9 13.8 0.3
17-09-2021 16:06 5 94 13.9 1011.6 5.0 7.2 W 1013.1 13.0 13.9 0.3
17-09-2021 16:11 5 94 14.0 1011.8 6.1 7.2 NW 1013.3 13.1 14.0 0.3
17-09-2021 16:16 5 93 14.1 1011.5 5.0 7.2 S 1013.0 13.0 14.1 0.3
17-09-2021 16:21 5 92 14.1 1011.9 6.1 8.6 SWW 1013.4 12.8 14.1 0.0
17-09-2021 16:26 5 91 14.2 1011.6 6.1 9.7 SWW 1013.1 12.8 14.2 0.0
17-09-2021 16:31 5 90 14.1 1011.7 8.6 12.2 W 1013.2 12.5 12.5 0.0
17-09-2021 16:36 5 89 14.0 1011.8 6.1 8.6 W 1013.3 12.2 14.0 0.0
17-09-2021 16:41 5 90 14.0 1011.7 6.1 9.7 W 1013.2 12.4 14.0 0.0
17-09-2021 16:46 5 90 14.1 1011.4 5.0 7.2 W 1012.9 12.5 14.1 0.0
17-09-2021 16:51 5 91 14.1 1011.6 3.6 5.0 W 1013.1 12.7 14.1 0.0
17-09-2021 16:56 5 91 14.2 1011.5 5.0 7.2 S 1013.0 12.8 14.2 0.0
17-09-2021 17:01 5 91 14.1 1011.6 3.6 6.1 SW 1013.1 12.7 14.1 0.0
17-09-2021 17:06 5 89 14.1 1011.7 9.7 14.8 W 1013.2 12.3 12.0 0.0
17-09-2021 17:11 5 89 14.0 1011.9 3.6 6.1 SWW 1013.4 12.2 14.0 0.0
17-09-2021 17:16 5 88 14.0 1011.7 6.1 7.2 W 1013.2 12.1 14.0 0.0
17-09-2021 17:21 5 88 14.0 1011.5 6.1 9.7 SW 1013.0 12.1 14.0 0.0
17-09-2021 17:26 5 88 13.9 1011.7 6.1 8.6 SW 1013.2 12.0 13.9 0.0
17-09-2021 17:31 5 88 13.9 1011.8 7.2 8.6 W 1013.3 12.0 13.0 0.0
17-09-2021 17:36 5 89 13.8 1011.6 6.1 8.6 SW 1013.1 12.0 13.8 0.0
17-09-2021 17:41 5 90 13.7 1011.7 5.0 7.2 W 1013.2 12.1 13.7 0.0
17-09-2021 17:46 5 91 13.6 1011.6 3.6 6.1 W 1013.1 12.2 13.6 0.0
17-09-2021 17:51 5 91 13.5 1011.7 5.0 8.6 W 1013.2 12.1 13.5 0.0
17-09-2021 17:56 5 92 13.4 1011.9 5.0 7.2 W 1013.4 12.1 13.4 0.0
17-09-2021 18:01 5 92 13.3 1011.7 3.6 6.1 W 1013.2 12.0 13.3 0.0
17-09-2021 18:06 5 92 13.3 1011.8 3.6 6.1 W 1013.3 12.0 13.3 0.0
17-09-2021 18:11 5 94 13.3 1011.6 2.5 3.6 NWW 1013.1 12.4 13.3 0.0
17-09-2021 18:16 5 94 13.2 1011.7 3.6 6.1 W 1013.2 12.3 13.2 0.0
17-09-2021 18:21 5 94 13.2 1011.8 3.6 5.0 NW 1013.3 12.3 13.2 0.0
17-09-2021 18:26 5 95 13.2 1011.9 3.6 5.0 W 1013.4 12.4 13.2 0.0
17-09-2021 18:31 5 95 13.2 1011.7 3.6 5.0 SW 1013.2 12.4 13.2 0.0
17-09-2021 18:36 5 95 13.2 1011.9 3.6 6.1 SW 1013.4 12.4 13.2 0.0
17-09-2021 18:41 5 95 13.2 1011.7 3.6 5.0 W 1013.2 12.4 13.2 0.0
17-09-2021 18:46 5 95 13.2 1011.9 3.6 6.1 W 1013.4 12.4 13.2 0.0
17-09-2021 18:51 5 96 13.2 1011.8 6.1 8.6 W 1013.3 12.6 13.2 0.0
17-09-2021 18:56 5 96 13.2 1011.7 2.5 3.6 SW 1013.2 12.6 13.2 0.0
17-09-2021 19:01 5 96 13.1 1011.8 2.5 5.0 W 1013.3 12.5 13.1 0.0
17-09-2021 19:06 5 96 13.1 1011.7 2.5 5.0 SWW 1013.2 12.5 13.1 0.0
17-09-2021 19:11 5 96 13.1 1011.7 2.5 3.6 SW 1013.2 12.5 13.1 0.0
17-09-2021 19:16 5 97 13.1 1011.6 5.0 6.1 W 1013.1 12.7 13.1 0.0
17-09-2021 19:21 5 97 13.1 1011.7 2.5 5.0 SW 1013.2 12.7 13.1 0.0
17-09-2021 19:26 5 97 13.1 1011.8 3.6 5.0 W 1013.3 12.7 13.1 0.0
17-09-2021 19:31 5 97 13.1 1011.6 2.5 3.6 W 1013.1 12.7 13.1 0.0
17-09-2021 19:36 5 98 13.1 1011.7 2.5 3.6 SW 1013.2 12.8 13.1 0.3
17-09-2021 19:41 5 98 13.1 1011.7 2.5 3.6 SWW 1013.2 12.8 13.1 0.3
17-09-2021 19:46 5 98 13.1 1011.6 1.1 2.5 NW 1013.1 12.8 13.1 0.3
17-09-2021 19:51 5 98 13.1 1011.9 1.1 2.5 W 1013.4 12.8 13.1 0.3
17-09-2021 19:56 5 98 13.1 1011.6 2.5 3.6 W 1013.1 12.8 13.1 0.3
17-09-2021 20:01 5 98 13.1 1011.8 0.0 1.1 SW 1013.3 12.8 13.1 0.3
17-09-2021 20:06 5 98 13.1 1011.7 0.0 1.1 SW 1013.2 12.8 13.1 0.3
17-09-2021 20:11 5 99 13.1 1011.8 2.5 5.0 W 1013.3 13.0 13.1 0.3
17-09-2021 20:16 5 99 13.1 1011.9 2.5 3.6 N 1013.4 13.0 13.1 0.3
17-09-2021 20:21 5 99 13.0 1011.8 1.1 2.5 S 1013.3 12.9 13.0 0.3
17-09-2021 20:26 5 99 13.1 1011.8 1.1 2.5 SW 1013.3 13.0 13.1 0.3
17-09-2021 20:31 5 99 13.1 1012.0 1.1 2.5 W 1013.5 13.0 13.1 0.3
17-09-2021 20:36 5 99 13.0 1011.9 0.0 1.1 SW 1013.4 12.9 13.0 0.3
17-09-2021 20:41 5 99 13.0 1011.8 0.0 1.1 SW 1013.3 12.9 13.0 0.3
17-09-2021 20:46 5 99 13.0 1011.9 0.0 0.0 S 1013.4 12.9 13.0 0.3
17-09-2021 20:51 5 99 13.0 1011.8 0.0 1.1 S 1013.3 12.9 13.0 0.3
17-09-2021 20:56 5 99 13.0 1012.3 0.0 0.0 W 1013.8 12.9 13.0 0.3
17-09-2021 21:01 5 99 13.0 1012.0 0.0 1.1 SW 1013.5 12.9 13.0 0.3
17-09-2021 21:06 5 99 13.1 1012.0 0.0 0.0 W 1013.5 13.0 13.1 0.3
17-09-2021 21:11 5 99 13.1 1012.2 1.1 2.5 W 1013.7 13.0 13.1 0.3
17-09-2021 21:16 5 99 13.1 1012.0 0.0 0.0 SW 1013.5 13.0 13.1 0.3
17-09-2021 21:21 5 99 13.2 1011.9 0.0 1.1 S 1013.4 13.1 13.2 0.3
17-09-2021 21:26 5 99 13.3 1012.1 1.1 2.5 W 1013.6 13.2 13.3 0.3
17-09-2021 21:31 5 99 13.3 1012.0 1.1 3.6 SW 1013.5 13.2 13.3 0.3
17-09-2021 21:36 5 99 13.4 1012.2 5.0 7.2 W 1013.7 13.3 13.4 0.0
17-09-2021 21:41 5 99 13.4 1012.1 3.6 5.0 SW 1013.6 13.3 13.4 0.0
17-09-2021 21:46 5 99 13.4 1012.1 2.5 5.0 W 1013.6 13.3 13.4 0.0
17-09-2021 21:51 5 99 13.4 1012.3 2.5 5.0 W 1013.8 13.3 13.4 0.0
17-09-2021 21:56 5 99 13.5 1012.2 5.0 6.1 W 1013.7 13.4 13.5 0.0
17-09-2021 22:01 5 99 13.5 1012.2 3.6 5.0 NW 1013.7 13.4 13.5 0.0
17-09-2021 22:06 5 99 13.5 1012.3 3.6 5.0 NW 1013.8 13.4 13.5 0.0
17-09-2021 22:11 5 99 13.5 1012.5 3.6 6.1 W 1014.0 13.4 13.5 0.0
17-09-2021 22:16 5 99 13.5 1012.3 3.6 5.0 S 1013.8 13.4 13.5 0.0
17-09-2021 22:21 5 99 13.5 1012.2 5.0 6.1 W 1013.7 13.4 13.5 0.0
17-09-2021 22:26 5 99 13.6 1012.1 2.5 3.6 W 1013.6 13.5 13.6 0.0
17-09-2021 22:31 5 99 13.6 1012.1 2.5 5.0 W 1013.6 13.5 13.6 0.0
17-09-2021 22:36 5 99 13.6 1012.1 2.5 3.6 W 1013.6 13.5 13.6 0.3
17-09-2021 22:41 5 99 13.6 1012.0 3.6 3.6 NW 1013.5 13.5 13.6 0.3
17-09-2021 22:46 5 99 13.7 1012.1 3.6 5.0 SW 1013.6 13.6 13.7 0.3
17-09-2021 22:51 5 99 13.7 1012.1 3.6 6.1 NW 1013.6 13.6 13.7 0.3
17-09-2021 22:56 5 99 13.7 1012.1 5.0 6.1 W 1013.6 13.6 13.7 0.3
17-09-2021 23:01 5 99 13.7 1012.1 5.0 6.1 SW 1013.6 13.6 13.7 0.3
17-09-2021 23:06 5 99 13.7 1012.0 3.6 5.0 N 1013.5 13.6 13.7 0.3
17-09-2021 23:11 5 99 13.7 1012.2 3.6 5.0 SW 1013.7 13.6 13.7 0.3
17-09-2021 23:16 5 99 13.7 1011.9 3.6 5.0 NW 1013.4 13.6 13.7 0.3
17-09-2021 23:21 5 99 13.7 1012.0 2.5 3.6 W 1013.5 13.6 13.7 0.3
17-09-2021 23:26 5 99 13.7 1012.0 5.0 7.2 W 1013.5 13.6 13.7 0.3
17-09-2021 23:31 5 99 13.8 1012.0 2.5 5.0 SW 1013.5 13.7 13.8 0.3
17-09-2021 23:36 5 99 13.8 1012.2 2.5 5.0 NW 1013.7 13.7 13.8 0.0
17-09-2021 23:41 5 99 13.8 1012.1 3.6 7.2 N 1013.6 13.7 13.8 0.0
17-09-2021 23:46 5 99 13.8 1011.7 5.0 7.2 S 1013.2 13.7 13.8 0.3
17-09-2021 23:51 5 99 13.9 1012.0 2.5 5.0 SW 1013.5 13.8 13.9 0.3
17-09-2021 23:56 5 99 13.9 1011.8 3.6 5.0 NW 1013.3 13.8 13.9 0.3

 

Tagesdaten                                                                  Tabelle: 08 UHR

STATIONHÖHELUFTD.TEMP.T-MinT-MaxU%RR1RR12SSSDDFFFXWetter+WolkenBöen
UFS TW Ems 0 1015.4 16.1 15.5 17.2 73 ---- --- --- N 14 --- --- ---
UFS Deutsche Bucht 0 1015.2 15.6 15.3 17.2 74 ---- --- --- N 25 --- --- ---
Helgoland 4 1015.1 14.8 14.6 16.8 79 0.0 0 --- N 23 36 --- ---
List/Sylt 26 1014.4 12.9 12.1 15.9 80 0.0 0 0 N 28 40 --- ---
Schleswig 43 1013.7 11.6 11.6 16.4 85 0.0 0 --- NW 9 23 --- ---
Leuchtturm Kiel 5 1012.6 12.9 12.7 17.0 82 ---- --- --- NW 36 50 --- Windböen
Kiel 27 1013.0 12.1 11.9 16.7 90 0.0 0 --- NW 16 24 Regen ---
Fehmarn 3 1011.9 13.8 13.5 17.2 83 0.0 1 --- NW 33 41 --- ---
Arkona 42 1009.3 14.4 14.2 16.2 89 0.0 2 --- NW 26 45 --- ---
Norderney 11 1015.4 16.0 15.8 17.3 76 0.0 1 --- N 19 27 --- ---
Leuchtt. Alte Weser 32 1014.8 15.6 15.5 17.3 72 ---- --- --- NW 32 --- --- ---
Cuxhaven 5 1014.7 14.6 14.5 17.2 78 0.0 0 --- NW 20 35 --- ---
Hamburg-Flh. 11 1014.0 13.4 13.3 15.7 79 0.0 0 0 NW 18 28 stark bewölkt ---
Schwerin 59 1012.5 12.9 12.7 16.2 85 0.0 0 --- W 15 29 --- ---
Rostock 4 1011.1 14.3 14.2 17.0 88 0.0 7 --- NW 35 44 Regen ---
Greifswald 2 1009.9 14.7 14.4 16.6 93 0.5 3 --- NW 14 28 Regen ---
Emden 0 1015.5 14.8 12.8 16.4 95 0.0 0 --- W 6 10 --- ---
Bremen-Flh. 5 1015.3 12.5 11.2 16.5 98 0.0 1 0 W 9 15 bewölkt ---
Lüchow 17 1013.5 14.0 13.9 17.2 88 0.0 0 --- W 8 19 --- ---
Marnitz 81 1012.3 13.0 12.9 16.2 85 0.0 1 --- NW 19 33 --- ---
Waren 70 1011.3 13.1 13.0 16.0 92 0.1 0 --- W 15 24 --- ---
Neuruppin 38 1012.0 13.8 13.5 16.6 87 0.0 0 --- W 8 23 --- ---
Angermünde 56 1011.2 14.3 14.3 16.7 88 0.0 0 0 W 15 28 --- ---
Münster/Osnabr.-Flh. 48 1016.5 12.1 10.3 16.9 97 0.0 0 0 O 2 8 Dunst oder flacher Nebel ---
Hannover-Flh. 59 1015.2 14.0 13.1 15.6 92 0.0 0 0 W 13 21 bewölkt ---
Magdeburg 76 1014.1 14.6 14.1 16.1 86 0.0 0 --- W 10 21 --- ---
Potsdam 81 1012.7 13.5 13.4 15.9 97 0.1 1 --- W 22 38 Regen ---
Berlin-Brandenburg-Flgh. 46 1012.4 14.7 14.5 16.6 82 0.0 0 0 W 18 30 leichter Regen ---
Berlin-Tempelhof 48 1012.2 14.5 14.4 17.2 81 0.0 0 --- NW 17 31 --- ---
Berlin-Dahlem 51 1012.2 14.5 14.2 16.7 --- ---- 0 0 W 22 --- leichter Regen ---
Lindenberg 91 1012.2 14.2 14.1 16.3 85 0.0 0 --- W 15 30 leichter Regen ---
Düsseldorf-Flh. 45 1016.9 14.3 11.1 17.9 92 0.0 0 0 SW 4 9 stark bewölkt ---
Essen 150 ------ --- --- --- --- ---- --- --- -- --- --- --- ---
Kahler Asten 839 ------ 9.6 9.5 10.9 99 0.0 0 0 W 10 25 Nebel ---
Bad Lippspringe 157 1016.6 12.8 10.1 15.8 97 0.0 0 --- - 0 5 Dunst oder flacher Nebel ---
Fritzlar 174 1016.7 11.7 10.5 16.7 95 ---- 0 0 SO 4 --- stark bewölkt ---
Brocken 1142 ------ 7.5 7.1 8.6 100 0.3 1 0 NW 34 54 Nebel Windböen
Leipzig-Flh. 142 1014.8 13.6 13.6 16.1 89 0.0 0 0 W 15 22 Regen ---
Dresden-Flh. 227 1014.0 14.2 14.1 16.3 85 ---- 0 0 W 17 30 leichter Regen ---
Cottbus 69 1012.8 15.1 14.9 16.5 83 0.0 0 --- W 10 23 --- ---
Görlitz 238 1013.3 14.1 12.2 15.7 87 0.0 0 --- W 13 26 Regen ---
Aachen 231 1017.3 13.6 12.0 16.6 88 0.0 0 --- SW 10 15 --- ---
Nürburg 485 1017.9 10.4 9.5 13.9 100 0.0 0 --- SW 4 6 Dunst oder flacher Nebel ---
Köln/Bonn-Flh. 92 1017.4 12.9 10.9 16.5 96 0.0 0 0 SO 5 8 stark bewölkt ---
Gießen/Wettenberg 203 1017.5 10.3 8.8 16.0 99 0.0 0 --- S 5 9 Nebel ---
Wasserkuppe 921 ------ 9.1 8.6 10.5 100 0.0 0 0 NW 20 29 Nebel ---
Meiningen 450 1016.9 12.1 10.8 14.4 87 0.0 0 --- SW 3 7 --- ---
Erfurt 316 1016.2 12.0 9.8 15.0 94 0.0 0 0 W 15 23 leichter Regen ---
Gera 311 1015.5 13.1 12.8 15.7 86 0.0 0 --- W 14 22 --- ---
Fichtelberg 1213 ------ 7.1 7.0 8.6 100 0.0 2 0 NW 37 50 Nebel ---
Trier 265 1018.0 12.0 11.0 16.7 99 0.0 0 --- N 2 3 Nebel ---
Hahn-Flh. 497 1017.7 11.3 10.7 14.7 93 0.0 0 --- W 7 10 --- ---
Frankfurt/M-Flh. 112 1017.5 11.8 10.5 17.6 97 0.0 0 0 S 2 8 heiter ---
OF-Wetterpark 119 1017.5 11.5 11.1 17.9 98 0.0 0 --- O 2 3 Dunst oder flacher Nebel ---
Würzburg 268 1018.1 10.9 10.5 15.6 98 0.0 0 --- SO 4 6 Nebel ---
Bamberg 239 1017.4 11.1 8.5 12.5 99 0.0 0 --- SO 3 5 Nebel ---
Hof 567 1016.4 11.2 10.7 12.5 89 0.0 0 --- W 8 18 --- ---
Weiden 438 1016.8 11.3 9.7 15.4 94 0.0 0 --- S 3 8   ---
Saarbrücken-Flh. 320 1018.1 10.3 8.6 16.2 98 0.0 0 0 O 4 5 stark bewölkt ---
Karlsruhe-Rheinst. 116 1017.7 11.2 9.8 17.1 99 0.0 0 --- SO 2 4 --- ---
Mannheim 96 1017.6 13.1 9.8 16.4 92 0.0 0 --- SO 3 6 --- ---
Stuttgart-Flh. 371 1018.0 12.1 11.5 15.8 96 0.0 0 --- O 4 13 stark bewölkt ---
Öhringen 276 1017.8 12.4 11.6 14.9 96 0.0 0 --- N 4 5 --- ---
Nürnberg-Flh. 314 1017.9 8.8 8.4 15.5 97 0.0 0 0 O 3 8 bewölkt ---
Regensburg 366 1017.3 11.5 9.6 15.6 95 0.0 0 --- W 4 11 --- ---
Straubing 351 1017.1 12.4 11.4 17.2 93 0.0 0 --- W 8 13 --- ---
Großer Arber 1436 ------ 6.8 5.9 11.2 100 0.1 1 0 NW 20 34 Nebel ---
Lahr 155 1017.5 12.6 11.3 17.4 100 0.0 0 --- NO 4 6 --- ---
Freudenstadt 797 ------ 9.9 9.8 12.9 98 0.0 0 0 NO 5 13 Dunst oder flacher Nebel ---
Stötten 734 1017.8 10.9 9.1 12.4 92 0.0 0 0 NW 7 10 --- ---
Augsburg 462 1018.0 10.7 6.4 15.3 98 0.0 0 --- - 0 4 --- ---
München-Flh. 444 1017.7 12.0 10.1 16.5 92 0.0 0 0 W 8 13 bedeckt ---
Fürstenzell 476 1016.7 11.5 11.1 16.8 97 0.0 3 --- W 17 25 --- ---
Feldberg/Schw. 1486 ------ 6.4 6.4 8.7 96 0.0 0 0 NO 5 8 --- ---
Konstanz 443 1017.2 14.1 13.8 17.0 85 0.0 0 --- NO 6 12 --- ---
Kempten 705 1017.3 11.9 11.7 15.1 90 0.0 0 0 NO 3 6 --- ---
Oberstdorf 806 ------ 11.4 11.3 15.1 96 0.2 5 0 SW 2 4 leichter Regen ---
Zugspitze 2960 ------ 0.3 0.0 3.4 100 ---- --- 0 N 17 29 Nebel ---
Hohenpeißenberg 977 ------ 8.9 8.7 13.0 98 0.0 4 0 N 9 19 Nebel ---

                                                                                                    Tabelle: 20 UHR  

STATIONHÖHELUFTD.TEMP.T-MinT-MaxU%RR1RR12SSSDDFFFXWetter+WolkenBöen
UFS TW Ems 0 1015.9 15.4 15.4 16.5 72 ---- --- --- NO 14 --- --- ---
UFS Deutsche Bucht 26 1015.7 15.4 15.0 16.6 72 ---- --- --- N 18 --- --- ---
Helgoland 4 1015.5 15.1 14.0 17.5 70 0.0 0 --- N 19 31 --- ---
List/Sylt 26 1015.2 13.8 12.7 16.5 81 0.0 0 0 N 19 31 --- ---
Schleswig 43 1014.4 12.7 11.4 15.3 88 0.0 0 --- NW 13 24 Regen ---
Leuchtturm Kiel 5 1013.4 13.2 12.5 14.9 91 ---- --- --- NW 36 43 --- ---
Kiel 27 1013.8 13.1 12.0 15.0 90 0.0 0 --- NW 12 29 Regen ---
Fehmarn 3 1012.8 15.0 13.6 15.3 93 0.0 0 --- NW 29 40 --- ---
Arkona 42 1011.3 14.4 13.5 15.5 96 0.1 0 --- NW 7 31 Regen ---
Norderney 11 1015.7 15.5 15.4 17.4 72 0.0 0 --- N 20 24 --- ---
Leuchtt. Alte Weser 32 1015.3 15.5 14.6 15.9 69 ---- --- --- N 22 --- --- ---
Cuxhaven 5 1015.0 15.3 14.1 17.0 74 0.0 0 --- NW 22 33 --- ---
Hamburg-Flh 11 1014.6 13.7 13.2 16.0 76 0.0 0 0 NW 11 17 stark bewölkt ---
Schwerin 59 1013.7 13.1 12.4 15.1 82 0.0 0 --- W 9 23 --- ---
Rostock 4 1012.6 15.0 14.1 15.9 85 0.0 0 --- NW 27 35 --- ---
Greifswald 2 1012.1 13.8 13.5 16.3 91 0.0 0 --- W 12 23 Regen ---
Emden 0 1015.7 14.0 14.0 19.9 82 0.0 0 --- N 3 14 Dunst oder flacher Nebel ---
Bremen-Flh. 5 1015.4 14.8 12.7 18.6 73 0.0 0 0 NW 12 22 gering bewölkt ---
Lüchow 17 1014.3 14.0 14.0 16.6 76 0.0 0 --- W 3 13 --- ---
Marnitz 81 1013.8 12.8 12.8 16.0 83 0.0 0 --- N 6 17 --- ---
Waren 70 1013.0 12.7 12.7 15.9 88 0.0 2 --- W 10 20 --- ---
Neuruppin 38 1013.6 13.5 13.5 15.3 78 0.0 0 --- NW 7 13 --- ---
Angermünde 56 1012.8 13.2 13.1 17.2 91 0.0 0 0 NW 13 23 --- ---
Münster/Osnabr.-Flh. 48 1015.1 16.9 12.1 19.8 84 0.0 0 0 N 3 9 bewölkt ---
Hannover-Flh. 59 1015.1 13.8 13.8 18.3 88 0.0 0 0 NW 8 13 bewölkt ---
Magdeburg 76 1014.3 15.1 14.6 17.7 79 0.0 0 --- NW 3 15 Regen ---
Potsdam 81 1013.8 13.6 13.1 16.4 80 0.0 0 --- W 14 28 --- ---
Berlin-Brandenburg-Flgh. 46 1013.3 14.9 14.6 16.7 70 0.0 0 0 NW 8 21 stark bewölkt ---
Berlin-Tempelhof 48 1013.4 14.9 14.4 17.3 69 0.0 0 --- W 10 23 --- ---
Berlin-Dahlem 51 1013.4 14.4 14.4 16.4 --- ---- 0 0 W 14 --- stark bewölkt ---
Lindenberg 91 1013.3 14.2 14.1 16.8 73 0.0 0 --- W 9 19 Regen ---
Düsseldorf-Flh. 45 1015.1 16.8 14.3 21.7 86 0.0 0 0 - 0 8 bewölkt ---
Essen 150 1015.1 17.3 --- --- 77 0.0 --- --- W 3 6 --- ---
Kahler Asten 839 ------ 11.6 9.6 13.6 92 0.0 0 0 W 13 17 Dunst oder flacher Nebel ---
Bad Lippspringe 157 1015.3 15.6 12.7 17.8 92 0.0 0 --- O 3 9 --- ---
Fritzlar 174 1015.2 15.9 11.8 19.1 85 ---- 0 0 W 7 --- bedeckt ---
Brocken 1142 ------ 7.8 7.0 8.4 100 0.0 1 0 NW 35 50 Nebel ---
Leipzig-Flh. 142 1014.3 15.3 13.2 18.3 77 0.0 0 0 W 12 22 Regen ---
Dresden-Flh. 227 1014.0 14.3 13.3 16.6 79 0.0 0 0 NW 7 20 stark bewölkt ---
Cottbus 69 1013.5 13.7 13.2 17.6 79 0.0 3 --- W 6 12 --- ---
Görlitz 238 1013.5 13.9 13.0 16.0 85 0.0 0 --- W 8 15 Regen ---
Aachen 231 1015.1 16.7 13.6 20.4 81 0.0 0 --- O 4 7 --- ---
Nürburg 485 1015.4 15.0 10.4 19.2 81 0.0 0 --- O 4 6 --- ---
Köln/Bonn-Flh. 92 1015.3 15.1 12.9 21.5 92 0.0 0 0 SO 6 8 gering bewölkt ---
Gießen/Wettenberg 203 1015.1 16.1 10.5 19.6 80 0.0 0 --- W 5 6 --- ---
Wasserkuppe 921 ------ 10.6 9.0 14.1 90 0.0 0 0 NW 12 15 --- ---
Meiningen 450 1015.4 14.7 11.9 17.0 76 0.0 0 --- NW 8 13 --- ---
Erfurt 316 1014.9 14.9 12.0 17.8 82 0.0 0 0 W 9 16 stark bewölkt ---
Gera 311 1014.6 15.0 13.1 16.8 77 0.0 0 --- W 8 14 --- ---
Fichtelberg 1213 ------ 7.7 6.9 8.2 100 0.0 0 0 NW 40 52 Nebel Windböen
Trier 265 1015.2 16.6 12.0 21.6 72 0.0 0 --- O 4 5 wolkenlos ---
Hahn-Flh. 497 1015.5 15.0 11.4 18.5 66 0.0 0 --- O 6 10 --- ---
Frankfurt/M-Flh. 112 1015.3 15.6 11.7 20.3 84 0.0 0 0 W 5 8 gering bewölkt ---
OF-Wetterpark 119 1015.4 15.7 11.6 21.4 84 0.0 0 --- - 0 6 --- ---
Würzburg 268 1015.6 16.9 10.9 20.0 71 0.0 0 --- NW 6 8 --- ---
Bamberg 239 1015.4 14.2 11.0 18.7 91 0.0 0 --- - 0 6 Dunst oder flacher Nebel ---
Hof 567 1015.2 13.3 10.9 14.9 85 0.0 0 --- SW 3 9 --- ---
Weiden 438 1015.6 13.6 11.3 16.3 79 0.0 0 --- SW 2 5 --- ---
Saarbrücken-Flh. 320 1015.4 14.9 10.4 20.3 82 0.0 0 0 NO 5 13 gering bewölkt ---
Karlsruhe-Rheinst. 116 1015.2 17.3 11.2 21.6 75 0.0 0 --- NO 7 14 --- ---
Mannheim 96 1015.3 16.6 13.0 21.2 91 0.0 0 --- S 3 6 Dunst oder flacher Nebel ---
Stuttgart-Flh. 371 1015.6 14.5 12.1 19.1 74 0.0 0 --- - 0 8 gering bewölkt ---
Öhringen 276 1015.4 16.3 12.4 20.4 77 0.0 0 --- N 5 7 --- ---
Nürnberg-Flh. 314 1015.4 15.0 8.8 18.5 84 0.0 0 0 NO 3 5 bewölkt ---
Regensburg 366 1015.6 14.4 11.5 19.7 81 0.0 0 --- - 0 5 --- ---
Straubing 351 1015.5 15.0 12.4 17.3 83 0.0 0 --- SW 4 5 --- ---
Großer Arber 1436 ------ 6.2 6.2 8.7 97 0.0 0 0 NW 14 25 Nebel ---
Lahr 155 1014.7 16.1 12.6 21.6 79 0.0 0 --- NO 6 13 --- ---
Freudenstadt 797 ------ 11.6 10.0 16.2 78 0.0 0 0 O 11 17 --- ---
Stötten 734 1016.2 11.5 10.9 15.9 84 0.0 0 0 N 4 8 --- ---
Augsburg 462 1016.1 12.3 10.7 18.6 94 0.0 0 --- O 6 8 --- ---
München-Flh. 444 1015.7 14.8 12.0 17.9 72 0.0 0 0 O 3 4 bewölkt ---
Fürstenzell 476 1015.5 14.2 11.5 16.2 81 0.0 0 --- W 8 15 --- ---
Feldberg/Schw. 1486 ------ 8.6 6.1 12.5 98 0.0 0 0 O 15 18 Nebel ---
Konstanz 443 1014.4 17.0 14.2 21.3 65 0.0 0 --- NO 10 17 --- ---
Kempten 705 1015.1 14.0 11.9 17.3 79 0.0 0 0 O 4 13 --- ---
Oberstdorf 806 ------ 13.4 11.3 18.5 92 0.0 0 0 S 4 9 --- ---
Zugspitze 2960 ------ 1.2 -0.3 2.8 69 ---- --- --- W 22 41 Nebel ---
Hohenpeißenberg 977 ------ 11.1 8.7 13.8 86 0.0 0 0 NO 11 18 --- ---

 

  • Wetterzustand
  • Windrichtung und -geschwindigkeit
  • Luftdruck
  • relative Luftfeuchtigkeit
  • Sichtweite
  • Gesamtbedeckungsgrad
  • Niederschlag
  • Sonnenscheindauer

 Höhe:     m über NN
Luftd.:   auf Meereshöhe reduzierter Luftdruck in hPa
TEMP.:   Lufttemperatur in Grad Celsius
T-MIN:   Minimumtemperatur der Luft in 2m Höhe in Grad Celsius, von 18 UTC Vortag bis 06 UTC heute
T-MAX:  Maximumtemperatur der Luft in 2m Höhe in Grad Celsius, von 18 UTC Vortag bis 06 UTC heute
RR1:     Niederschlagsmenge, einstündig, mm ist gleich Liter pro
RR12:   Niederschlagsmenge, 12 stündig, 18 UTC Vortag bis 06 UTC heute in mm ist gleich Liter pro
SSS:     Gesamtschneehöhe
DD:      Windrichtung
FF:       Windgeschwindigkeit letztes 10-Minutenmittel in km/h
FX:       höchste Windspitze während der letzten Stunde in km/h
---:      Wert nicht vorhanden

 

2009-2021

Unwetterwarnungen

 

  Radarbild           

aktueller Radarfilm Deutschland

  Europa-Meteoalarm    

     

Deutschlandkarte mit dem Tageswert des Waldbrand-Gefahrenindex WBI, heute